sensor_id;sensor_type;location;lat;lon;timestamp;P1;durP1;ratioP1;P2;durP2;ratioP2
71566;SDS011;59403;47.456;19.120;2023-04-21T00:00:51;9.43;;;5.47;;
71566;SDS011;59403;47.456;19.120;2023-04-21T00:03:18;11.40;;;6.03;;
71566;SDS011;59403;47.456;19.120;2023-04-21T00:05:47;9.07;;;5.35;;
71566;SDS011;59403;47.456;19.120;2023-04-21T00:08:15;8.95;;;5.28;;
71566;SDS011;59403;47.456;19.120;2023-04-21T00:10:43;9.10;;;5.45;;
71566;SDS011;59403;47.456;19.120;2023-04-21T00:13:12;8.82;;;5.35;;
71566;SDS011;59403;47.456;19.120;2023-04-21T00:15:39;10.02;;;5.50;;
71566;SDS011;59403;47.456;19.120;2023-04-21T00:18:06;8.98;;;5.22;;
71566;SDS011;59403;47.456;19.120;2023-04-21T00:20:33;11.93;;;5.85;;
71566;SDS011;59403;47.456;19.120;2023-04-21T00:23:00;8.90;;;5.90;;
71566;SDS011;59403;47.456;19.120;2023-04-21T00:25:28;9.43;;;6.03;;
71566;SDS011;59403;47.456;19.120;2023-04-21T00:27:55;9.80;;;5.95;;
71566;SDS011;59403;47.456;19.120;2023-04-21T00:30:23;8.38;;;5.75;;
71566;SDS011;59403;47.456;19.120;2023-04-21T00:32:50;11.48;;;5.60;;
71566;SDS011;59403;47.456;19.120;2023-04-21T00:35:17;13.88;;;5.62;;
71566;SDS011;59403;47.456;19.120;2023-04-21T00:37:44;9.13;;;5.18;;
71566;SDS011;59403;47.456;19.120;2023-04-21T00:40:11;11.18;;;5.50;;
71566;SDS011;59403;47.456;19.120;2023-04-21T00:42:38;10.43;;;5.50;;
71566;SDS011;59403;47.456;19.120;2023-04-21T00:45:05;12.93;;;5.90;;
71566;SDS011;59403;47.456;19.120;2023-04-21T00:47:34;8.93;;;5.22;;
71566;SDS011;59403;47.456;19.120;2023-04-21T00:50:01;8.38;;;5.55;;
71566;SDS011;59403;47.456;19.120;2023-04-21T00:52:29;11.68;;;5.07;;
71566;SDS011;59403;47.456;19.120;2023-04-21T00:54:56;8.18;;;4.85;;
71566;SDS011;59403;47.456;19.120;2023-04-21T00:57:24;9.88;;;4.80;;
71566;SDS011;59403;47.456;19.120;2023-04-21T00:59:53;9.98;;;5.50;;
71566;SDS011;59403;47.456;19.120;2023-04-21T01:02:19;10.15;;;5.57;;
71566;SDS011;59403;47.456;19.120;2023-04-21T01:04:49;11.52;;;5.72;;
71566;SDS011;59403;47.456;19.120;2023-04-21T01:07:16;8.65;;;5.90;;
71566;SDS011;59403;47.456;19.120;2023-04-21T01:09:43;11.00;;;5.53;;
71566;SDS011;59403;47.456;19.120;2023-04-21T01:12:10;12.37;;;6.00;;
71566;SDS011;59403;47.456;19.120;2023-04-21T01:14:38;9.60;;;5.47;;
71566;SDS011;59403;47.456;19.120;2023-04-21T01:17:06;9.18;;;5.40;;
71566;SDS011;59403;47.456;19.120;2023-04-21T01:19:34;10.40;;;5.57;;
71566;SDS011;59403;47.456;19.120;2023-04-21T01:22:06;9.07;;;5.80;;
71566;SDS011;59403;47.456;19.120;2023-04-21T01:24:36;10.75;;;5.35;;
71566;SDS011;59403;47.456;19.120;2023-04-21T01:27:07;8.70;;;5.40;;
71566;SDS011;59403;47.456;19.120;2023-04-21T01:29:35;8.70;;;4.93;;
71566;SDS011;59403;47.456;19.120;2023-04-21T01:32:03;11.10;;;5.82;;
71566;SDS011;59403;47.456;19.120;2023-04-21T01:34:31;9.10;;;5.55;;
71566;SDS011;59403;47.456;19.120;2023-04-21T01:36:59;11.45;;;5.68;;
71566;SDS011;59403;47.456;19.120;2023-04-21T01:39:27;11.35;;;5.47;;
71566;SDS011;59403;47.456;19.120;2023-04-21T01:41:54;8.77;;;5.37;;
71566;SDS011;59403;47.456;19.120;2023-04-21T01:44:23;9.35;;;5.20;;
71566;SDS011;59403;47.456;19.120;2023-04-21T01:46:51;9.90;;;5.70;;
71566;SDS011;59403;47.456;19.120;2023-04-21T01:49:18;10.38;;;5.47;;
71566;SDS011;59403;47.456;19.120;2023-04-21T01:51:45;10.27;;;5.90;;
71566;SDS011;59403;47.456;19.120;2023-04-21T01:54:12;11.32;;;5.78;;
71566;SDS011;59403;47.456;19.120;2023-04-21T01:56:40;12.48;;;6.07;;
71566;SDS011;59403;47.456;19.120;2023-04-21T01:59:07;9.70;;;5.40;;
71566;SDS011;59403;47.456;19.120;2023-04-21T02:01:34;8.98;;;5.22;;
71566;SDS011;59403;47.456;19.120;2023-04-21T02:04:01;8.98;;;5.37;;
71566;SDS011;59403;47.456;19.120;2023-04-21T02:06:28;12.55;;;5.85;;
71566;SDS011;59403;47.456;19.120;2023-04-21T02:08:55;8.80;;;5.25;;
71566;SDS011;59403;47.456;19.120;2023-04-21T02:11:23;10.20;;;5.32;;
71566;SDS011;59403;47.456;19.120;2023-04-21T02:13:51;11.40;;;5.50;;
71566;SDS011;59403;47.456;19.120;2023-04-21T02:16:19;11.88;;;5.57;;
71566;SDS011;59403;47.456;19.120;2023-04-21T02:18:50;10.20;;;5.15;;
71566;SDS011;59403;47.456;19.120;2023-04-21T02:21:17;9.90;;;5.65;;
71566;SDS011;59403;47.456;19.120;2023-04-21T02:23:45;8.23;;;5.20;;
71566;SDS011;59403;47.456;19.120;2023-04-21T02:26:12;8.20;;;5.28;;
71566;SDS011;59403;47.456;19.120;2023-04-21T02:28:39;12.25;;;5.82;;
71566;SDS011;59403;47.456;19.120;2023-04-21T02:31:08;9.98;;;5.05;;
71566;SDS011;59403;47.456;19.120;2023-04-21T02:33:35;9.88;;;6.18;;
71566;SDS011;59403;47.456;19.120;2023-04-21T02:36:02;8.90;;;6.07;;
71566;SDS011;59403;47.456;19.120;2023-04-21T02:38:29;10.20;;;5.62;;
71566;SDS011;59403;47.456;19.120;2023-04-21T02:40:56;10.20;;;5.07;;
71566;SDS011;59403;47.456;19.120;2023-04-21T02:43:23;9.73;;;5.50;;
71566;SDS011;59403;47.456;19.120;2023-04-21T02:45:50;8.90;;;5.12;;
71566;SDS011;59403;47.456;19.120;2023-04-21T02:48:19;8.10;;;4.30;;
71566;SDS011;59403;47.456;19.120;2023-04-21T02:50:47;9.27;;;5.07;;
71566;SDS011;59403;47.456;19.120;2023-04-21T02:53:14;9.93;;;5.00;;
71566;SDS011;59403;47.456;19.120;2023-04-21T02:55:41;8.63;;;4.87;;
71566;SDS011;59403;47.456;19.120;2023-04-21T02:58:08;11.55;;;5.03;;
71566;SDS011;59403;47.456;19.120;2023-04-21T03:00:36;10.57;;;4.82;;
71566;SDS011;59403;47.456;19.120;2023-04-21T03:03:02;9.77;;;4.85;;
71566;SDS011;59403;47.456;19.120;2023-04-21T03:05:31;8.93;;;4.97;;
71566;SDS011;59403;47.456;19.120;2023-04-21T03:07:58;9.32;;;4.72;;
71566;SDS011;59403;47.456;19.120;2023-04-21T03:10:25;9.07;;;4.75;;
71566;SDS011;59403;47.456;19.120;2023-04-21T03:12:52;8.50;;;4.30;;
71566;SDS011;59403;47.456;19.120;2023-04-21T03:15:20;10.98;;;5.05;;
71566;SDS011;59403;47.456;19.120;2023-04-21T03:17:48;8.70;;;4.85;;
71566;SDS011;59403;47.456;19.120;2023-04-21T03:20:14;9.60;;;5.00;;
71566;SDS011;59403;47.456;19.120;2023-04-21T03:22:43;10.88;;;4.93;;
71566;SDS011;59403;47.456;19.120;2023-04-21T03:25:10;12.57;;;5.00;;
71566;SDS011;59403;47.456;19.120;2023-04-21T03:27:37;10.77;;;5.32;;
71566;SDS011;59403;47.456;19.120;2023-04-21T03:30:05;12.00;;;4.62;;
71566;SDS011;59403;47.456;19.120;2023-04-21T03:32:32;11.95;;;5.65;;
71566;SDS011;59403;47.456;19.120;2023-04-21T03:34:59;10.18;;;5.32;;
71566;SDS011;59403;47.456;19.120;2023-04-21T03:37:26;11.27;;;5.55;;
71566;SDS011;59403;47.456;19.120;2023-04-21T03:39:55;9.98;;;5.60;;
71566;SDS011;59403;47.456;19.120;2023-04-21T03:42:22;11.80;;;5.53;;
71566;SDS011;59403;47.456;19.120;2023-04-21T03:44:50;9.02;;;5.43;;
71566;SDS011;59403;47.456;19.120;2023-04-21T03:47:17;9.00;;;5.43;;
71566;SDS011;59403;47.456;19.120;2023-04-21T03:49:44;11.02;;;5.90;;
71566;SDS011;59403;47.456;19.120;2023-04-21T03:52:11;14.68;;;5.80;;
71566;SDS011;59403;47.456;19.120;2023-04-21T03:54:38;12.13;;;6.30;;
71566;SDS011;59403;47.456;19.120;2023-04-21T03:57:06;12.15;;;6.12;;
71566;SDS011;59403;47.456;19.120;2023-04-21T03:59:33;12.13;;;6.37;;
71566;SDS011;59403;47.456;19.120;2023-04-21T04:02:00;13.13;;;5.72;;
71566;SDS011;59403;47.456;19.120;2023-04-21T04:04:27;12.95;;;6.00;;
71566;SDS011;59403;47.456;19.120;2023-04-21T04:06:54;10.77;;;5.45;;
71566;SDS011;59403;47.456;19.120;2023-04-21T04:09:21;8.95;;;5.68;;
71566;SDS011;59403;47.456;19.120;2023-04-21T04:11:48;11.52;;;5.20;;
71566;SDS011;59403;47.456;19.120;2023-04-21T04:14:16;13.50;;;4.93;;
71566;SDS011;59403;47.456;19.120;2023-04-21T04:16:43;8.80;;;4.15;;
71566;SDS011;59403;47.456;19.120;2023-04-21T04:19:10;9.25;;;4.37;;
71566;SDS011;59403;47.456;19.120;2023-04-21T04:21:37;8.77;;;4.68;;
71566;SDS011;59403;47.456;19.120;2023-04-21T04:24:04;12.20;;;4.87;;
71566;SDS011;59403;47.456;19.120;2023-04-21T04:26:32;11.93;;;4.35;;
71566;SDS011;59403;47.456;19.120;2023-04-21T04:28:59;12.43;;;4.00;;
71566;SDS011;59403;47.456;19.120;2023-04-21T04:31:28;8.32;;;4.70;;
71566;SDS011;59403;47.456;19.120;2023-04-21T04:33:55;11.32;;;4.35;;
71566;SDS011;59403;47.456;19.120;2023-04-21T04:36:22;10.85;;;4.57;;
71566;SDS011;59403;47.456;19.120;2023-04-21T04:38:49;9.05;;;4.93;;
71566;SDS011;59403;47.456;19.120;2023-04-21T04:41:16;10.18;;;3.95;;
71566;SDS011;59403;47.456;19.120;2023-04-21T04:43:45;10.65;;;4.20;;
71566;SDS011;59403;47.456;19.120;2023-04-21T04:46:12;14.23;;;5.22;;
71566;SDS011;59403;47.456;19.120;2023-04-21T04:48:40;9.43;;;4.72;;
71566;SDS011;59403;47.456;19.120;2023-04-21T04:51:07;13.68;;;5.25;;
71566;SDS011;59403;47.456;19.120;2023-04-21T04:53:34;14.10;;;4.20;;
71566;SDS011;59403;47.456;19.120;2023-04-21T04:56:01;9.02;;;4.43;;
71566;SDS011;59403;47.456;19.120;2023-04-21T04:58:28;9.68;;;4.50;;
71566;SDS011;59403;47.456;19.120;2023-04-21T05:00:55;11.18;;;3.80;;
71566;SDS011;59403;47.456;19.120;2023-04-21T05:03:21;10.40;;;3.92;;
71566;SDS011;59403;47.456;19.120;2023-04-21T05:05:50;12.30;;;4.25;;
71566;SDS011;59403;47.456;19.120;2023-04-21T05:08:18;9.00;;;4.00;;
71566;SDS011;59403;47.456;19.120;2023-04-21T05:10:45;9.70;;;4.20;;
71566;SDS011;59403;47.456;19.120;2023-04-21T05:13:11;8.63;;;4.32;;
71566;SDS011;59403;47.456;19.120;2023-04-21T05:15:38;10.88;;;4.10;;
71566;SDS011;59403;47.456;19.120;2023-04-21T05:18:06;11.93;;;3.78;;
71566;SDS011;59403;47.456;19.120;2023-04-21T05:20:32;7.75;;;4.25;;
71566;SDS011;59403;47.456;19.120;2023-04-21T05:23:01;13.93;;;4.72;;
71566;SDS011;59403;47.456;19.120;2023-04-21T05:25:27;11.93;;;4.22;;
71566;SDS011;59403;47.456;19.120;2023-04-21T05:27:55;9.27;;;4.32;;
71566;SDS011;59403;47.456;19.120;2023-04-21T05:30:22;13.18;;;5.70;;
71566;SDS011;59403;47.456;19.120;2023-04-21T05:32:48;13.50;;;5.78;;
71566;SDS011;59403;47.456;19.120;2023-04-21T05:35:15;9.07;;;5.20;;
71566;SDS011;59403;47.456;19.120;2023-04-21T05:37:42;9.90;;;4.95;;
71566;SDS011;59403;47.456;19.120;2023-04-21T05:40:10;10.13;;;4.53;;
71566;SDS011;59403;47.456;19.120;2023-04-21T05:42:37;9.65;;;4.10;;
71566;SDS011;59403;47.456;19.120;2023-04-21T05:45:05;9.70;;;5.18;;
71566;SDS011;59403;47.456;19.120;2023-04-21T05:47:32;9.00;;;4.30;;
71566;SDS011;59403;47.456;19.120;2023-04-21T05:49:59;9.48;;;4.25;;
71566;SDS011;59403;47.456;19.120;2023-04-21T05:52:26;8.75;;;4.18;;
71566;SDS011;59403;47.456;19.120;2023-04-21T05:54:53;8.25;;;3.92;;
71566;SDS011;59403;47.456;19.120;2023-04-21T05:57:22;13.15;;;3.83;;
71566;SDS011;59403;47.456;19.120;2023-04-21T05:59:49;8.32;;;4.10;;
71566;SDS011;59403;47.456;19.120;2023-04-21T06:02:16;9.30;;;4.28;;
71566;SDS011;59403;47.456;19.120;2023-04-21T06:04:43;9.75;;;3.87;;
71566;SDS011;59403;47.456;19.120;2023-04-21T06:07:10;9.80;;;4.32;;
71566;SDS011;59403;47.456;19.120;2023-04-21T06:09:38;10.70;;;4.80;;
71566;SDS011;59403;47.456;19.120;2023-04-21T06:12:05;11.57;;;4.40;;
71566;SDS011;59403;47.456;19.120;2023-04-21T06:14:34;10.23;;;3.78;;
71566;SDS011;59403;47.456;19.120;2023-04-21T06:17:01;11.52;;;4.20;;
71566;SDS011;59403;47.456;19.120;2023-04-21T06:19:28;12.20;;;4.43;;
71566;SDS011;59403;47.456;19.120;2023-04-21T06:21:55;10.07;;;4.37;;
71566;SDS011;59403;47.456;19.120;2023-04-21T06:24:22;13.05;;;4.05;;
71566;SDS011;59403;47.456;19.120;2023-04-21T06:26:50;10.90;;;4.00;;
71566;SDS011;59403;47.456;19.120;2023-04-21T06:29:17;13.07;;;5.20;;
71566;SDS011;59403;47.456;19.120;2023-04-21T06:31:46;7.37;;;3.50;;
71566;SDS011;59403;47.456;19.120;2023-04-21T06:34:13;10.43;;;3.50;;
71566;SDS011;59403;47.456;19.120;2023-04-21T06:36:39;12.00;;;3.53;;
71566;SDS011;59403;47.456;19.120;2023-04-21T06:39:06;10.38;;;3.22;;
71566;SDS011;59403;47.456;19.120;2023-04-21T06:41:33;8.90;;;3.60;;
71566;SDS011;59403;47.456;19.120;2023-04-21T06:44:00;6.25;;;3.03;;
71566;SDS011;59403;47.456;19.120;2023-04-21T06:46:27;10.95;;;3.67;;
71566;SDS011;59403;47.456;19.120;2023-04-21T06:48:55;11.10;;;3.60;;
71566;SDS011;59403;47.456;19.120;2023-04-21T06:51:22;7.75;;;3.87;;
71566;SDS011;59403;47.456;19.120;2023-04-21T06:53:49;8.07;;;3.92;;
71566;SDS011;59403;47.456;19.120;2023-04-21T06:56:16;11.32;;;3.50;;
71566;SDS011;59403;47.456;19.120;2023-04-21T06:58:43;9.73;;;3.30;;
71566;SDS011;59403;47.456;19.120;2023-04-21T07:01:11;7.47;;;3.10;;
71566;SDS011;59403;47.456;19.120;2023-04-21T07:03:38;13.02;;;2.90;;
71566;SDS011;59403;47.456;19.120;2023-04-21T07:06:06;8.80;;;3.05;;
71566;SDS011;59403;47.456;19.120;2023-04-21T07:08:33;8.60;;;3.12;;
71566;SDS011;59403;47.456;19.120;2023-04-21T07:11:00;10.48;;;2.80;;
71566;SDS011;59403;47.456;19.120;2023-04-21T07:13:27;7.30;;;2.60;;
71566;SDS011;59403;47.456;19.120;2023-04-21T07:15:54;9.57;;;2.45;;
71566;SDS011;59403;47.456;19.120;2023-04-21T07:18:21;9.93;;;2.78;;
71566;SDS011;59403;47.456;19.120;2023-04-21T07:20:48;9.27;;;2.25;;
71566;SDS011;59403;47.456;19.120;2023-04-21T07:23:16;16.45;;;2.40;;
71566;SDS011;59403;47.456;19.120;2023-04-21T07:25:43;10.82;;;2.35;;
71566;SDS011;59403;47.456;19.120;2023-04-21T07:28:10;8.05;;;2.22;;
71566;SDS011;59403;47.456;19.120;2023-04-21T07:30:39;8.73;;;2.70;;
71566;SDS011;59403;47.456;19.120;2023-04-21T07:33:06;11.18;;;2.42;;
71566;SDS011;59403;47.456;19.120;2023-04-21T07:35:33;9.65;;;2.72;;
71566;SDS011;59403;47.456;19.120;2023-04-21T07:38:00;7.37;;;2.87;;
71566;SDS011;59403;47.456;19.120;2023-04-21T07:40:28;9.20;;;2.40;;
71566;SDS011;59403;47.456;19.120;2023-04-21T07:42:55;7.50;;;2.67;;
71566;SDS011;59403;47.456;19.120;2023-04-21T07:45:23;10.57;;;2.62;;
71566;SDS011;59403;47.456;19.120;2023-04-21T07:47:50;7.62;;;2.05;;
71566;SDS011;59403;47.456;19.120;2023-04-21T07:50:17;7.45;;;2.37;;
71566;SDS011;59403;47.456;19.120;2023-04-21T07:52:44;7.87;;;2.72;;
71566;SDS011;59403;47.456;19.120;2023-04-21T07:55:12;8.77;;;2.20;;
71566;SDS011;59403;47.456;19.120;2023-04-21T07:57:40;13.73;;;3.05;;
71566;SDS011;59403;47.456;19.120;2023-04-21T08:00:07;7.50;;;2.00;;
71566;SDS011;59403;47.456;19.120;2023-04-21T08:02:35;10.70;;;2.62;;
71566;SDS011;59403;47.456;19.120;2023-04-21T08:05:02;8.53;;;2.33;;
71566;SDS011;59403;47.456;19.120;2023-04-21T08:07:29;5.90;;;2.45;;
71566;SDS011;59403;47.456;19.120;2023-04-21T08:09:56;8.43;;;2.55;;
71566;SDS011;59403;47.456;19.120;2023-04-21T08:12:23;9.80;;;3.00;;
71566;SDS011;59403;47.456;19.120;2023-04-21T08:14:51;11.68;;;2.70;;
71566;SDS011;59403;47.456;19.120;2023-04-21T08:17:18;9.20;;;2.60;;
71566;SDS011;59403;47.456;19.120;2023-04-21T08:19:45;13.07;;;2.95;;
71566;SDS011;59403;47.456;19.120;2023-04-21T08:22:11;11.93;;;3.20;;
71566;SDS011;59403;47.456;19.120;2023-04-21T08:24:38;7.55;;;2.75;;
71566;SDS011;59403;47.456;19.120;2023-04-21T08:27:05;8.77;;;2.22;;
71566;SDS011;59403;47.456;19.120;2023-04-21T08:29:32;8.40;;;2.53;;
71566;SDS011;59403;47.456;19.120;2023-04-21T08:32:00;8.82;;;2.40;;
71566;SDS011;59403;47.456;19.120;2023-04-21T08:34:27;9.55;;;2.30;;
71566;SDS011;59403;47.456;19.120;2023-04-21T08:36:54;8.13;;;3.00;;
71566;SDS011;59403;47.456;19.120;2023-04-21T08:39:21;10.38;;;3.37;;
71566;SDS011;59403;47.456;19.120;2023-04-21T08:41:48;11.12;;;2.75;;
71566;SDS011;59403;47.456;19.120;2023-04-21T08:44:16;9.88;;;2.67;;
71566;SDS011;59403;47.456;19.120;2023-04-21T08:46:44;11.45;;;2.85;;
71566;SDS011;59403;47.456;19.120;2023-04-21T08:49:16;12.02;;;2.25;;
71566;SDS011;59403;47.456;19.120;2023-04-21T08:51:45;9.60;;;2.53;;
71566;SDS011;59403;47.456;19.120;2023-04-21T08:54:13;9.70;;;3.27;;
71566;SDS011;59403;47.456;19.120;2023-04-21T08:56:39;10.68;;;3.20;;
71566;SDS011;59403;47.456;19.120;2023-04-21T09:04:33;8.32;;;3.47;;
71566;SDS011;59403;47.456;19.120;2023-04-21T09:07:00;11.40;;;4.10;;
71566;SDS011;59403;47.456;19.120;2023-04-21T09:09:27;10.45;;;4.62;;
71566;SDS011;59403;47.456;19.120;2023-04-21T09:11:54;12.37;;;4.18;;
71566;SDS011;59403;47.456;19.120;2023-04-21T09:14:27;7.53;;;3.17;;
71566;SDS011;59403;47.456;19.120;2023-04-21T09:16:58;8.50;;;3.62;;
71566;SDS011;59403;47.456;19.120;2023-04-21T09:19:26;13.00;;;4.20;;
71566;SDS011;59403;47.456;19.120;2023-04-21T09:21:54;15.45;;;4.10;;
71566;SDS011;59403;47.456;19.120;2023-04-21T09:24:21;8.60;;;4.18;;
71566;SDS011;59403;47.456;19.120;2023-04-21T09:26:49;8.70;;;4.10;;
71566;SDS011;59403;47.456;19.120;2023-04-21T09:29:17;11.52;;;4.22;;
71566;SDS011;59403;47.456;19.120;2023-04-21T09:31:44;12.73;;;4.30;;
71566;SDS011;59403;47.456;19.120;2023-04-21T09:34:16;12.15;;;4.30;;
71566;SDS011;59403;47.456;19.120;2023-04-21T09:36:44;8.65;;;3.70;;
71566;SDS011;59403;47.456;19.120;2023-04-21T09:39:13;11.65;;;4.47;;
71566;SDS011;59403;47.456;19.120;2023-04-21T09:41:40;7.55;;;4.28;;
71566;SDS011;59403;47.456;19.120;2023-04-21T09:44:09;12.95;;;5.10;;
71566;SDS011;59403;47.456;19.120;2023-04-21T09:46:35;8.80;;;4.37;;
71566;SDS011;59403;47.456;19.120;2023-04-21T09:49:02;7.40;;;4.75;;
71566;SDS011;59403;47.456;19.120;2023-04-21T09:51:30;7.72;;;4.03;;
71566;SDS011;59403;47.456;19.120;2023-04-21T09:53:58;11.43;;;4.87;;
71566;SDS011;59403;47.456;19.120;2023-04-21T09:56:33;11.07;;;4.80;;
71566;SDS011;59403;47.456;19.120;2023-04-21T09:59:06;10.65;;;4.15;;
71566;SDS011;59403;47.456;19.120;2023-04-21T10:01:37;10.57;;;4.45;;
71566;SDS011;59403;47.456;19.120;2023-04-21T10:04:04;11.77;;;4.97;;
71566;SDS011;59403;47.456;19.120;2023-04-21T10:06:31;6.95;;;4.25;;
71566;SDS011;59403;47.456;19.120;2023-04-21T10:08:58;9.20;;;5.00;;
71566;SDS011;59403;47.456;19.120;2023-04-21T10:11:26;6.70;;;4.25;;
71566;SDS011;59403;47.456;19.120;2023-04-21T10:13:55;9.05;;;4.70;;
71566;SDS011;59403;47.456;19.120;2023-04-21T10:16:22;8.07;;;4.82;;
71566;SDS011;59403;47.456;19.120;2023-04-21T10:18:50;11.88;;;5.15;;
71566;SDS011;59403;47.456;19.120;2023-04-21T10:21:18;8.00;;;4.07;;
71566;SDS011;59403;47.456;19.120;2023-04-21T10:23:46;7.43;;;4.78;;
71566;SDS011;59403;47.456;19.120;2023-04-21T10:26:18;6.78;;;4.57;;
71566;SDS011;59403;47.456;19.120;2023-04-21T10:28:47;8.50;;;4.68;;
71566;SDS011;59403;47.456;19.120;2023-04-21T10:31:20;7.75;;;4.32;;
71566;SDS011;59403;47.456;19.120;2023-04-21T10:39:42;9.32;;;4.40;;
71566;SDS011;59403;47.456;19.120;2023-04-21T10:42:19;10.05;;;5.07;;
71566;SDS011;59403;47.456;19.120;2023-04-21T10:44:52;10.95;;;5.00;;
71566;SDS011;59403;47.456;19.120;2023-04-21T10:47:37;9.73;;;4.23;;
71566;SDS011;59403;47.456;19.120;2023-04-21T10:50:20;10.32;;;4.32;;
71566;SDS011;59403;47.456;19.120;2023-04-21T10:52:53;9.25;;;5.47;;
71566;SDS011;59403;47.456;19.120;2023-04-21T10:55:24;9.93;;;5.15;;
71566;SDS011;59403;47.456;19.120;2023-04-21T10:57:52;8.30;;;5.22;;
71566;SDS011;59403;47.456;19.120;2023-04-21T11:00:20;9.43;;;4.80;;
71566;SDS011;59403;47.456;19.120;2023-04-21T11:02:53;7.87;;;5.10;;
71566;SDS011;59403;47.456;19.120;2023-04-21T11:05:29;9.05;;;5.00;;
71566;SDS011;59403;47.456;19.120;2023-04-21T11:08:04;10.02;;;5.32;;
71566;SDS011;59403;47.456;19.120;2023-04-21T11:10:43;7.28;;;4.90;;
71566;SDS011;59403;47.456;19.120;2023-04-21T11:13:12;8.60;;;5.23;;
71566;SDS011;59403;47.456;19.120;2023-04-21T11:15:40;8.93;;;4.78;;
71566;SDS011;59403;47.456;19.120;2023-04-21T11:18:08;7.37;;;4.72;;
71566;SDS011;59403;47.456;19.120;2023-04-21T11:20:38;9.95;;;5.82;;
71566;SDS011;59403;47.456;19.120;2023-04-21T11:23:15;9.18;;;5.30;;
71566;SDS011;59403;47.456;19.120;2023-04-21T11:25:44;7.87;;;5.30;;
71566;SDS011;59403;47.456;19.120;2023-04-21T11:28:11;9.05;;;5.15;;
71566;SDS011;59403;47.456;19.120;2023-04-21T11:30:46;6.62;;;5.10;;
71566;SDS011;59403;47.456;19.120;2023-04-21T11:33:14;10.45;;;5.68;;
71566;SDS011;59403;47.456;19.120;2023-04-21T11:35:41;10.23;;;5.90;;
71566;SDS011;59403;47.456;19.120;2023-04-21T11:38:09;8.87;;;5.47;;
71566;SDS011;59403;47.456;19.120;2023-04-21T11:40:43;8.52;;;4.80;;
71566;SDS011;59403;47.456;19.120;2023-04-21T11:43:11;8.68;;;4.90;;
71566;SDS011;59403;47.456;19.120;2023-04-21T11:45:39;9.02;;;5.12;;
71566;SDS011;59403;47.456;19.120;2023-04-21T11:48:12;9.43;;;5.60;;
71566;SDS011;59403;47.456;19.120;2023-04-21T11:50:43;10.37;;;4.83;;
71566;SDS011;59403;47.456;19.120;2023-04-21T11:53:13;7.95;;;5.18;;
71566;SDS011;59403;47.456;19.120;2023-04-21T11:55:41;8.68;;;4.62;;
71566;SDS011;59403;47.456;19.120;2023-04-21T11:58:08;6.87;;;4.35;;
71566;SDS011;59403;47.456;19.120;2023-04-21T12:00:36;9.18;;;5.15;;
71566;SDS011;59403;47.456;19.120;2023-04-21T12:03:07;9.57;;;5.30;;
71566;SDS011;59403;47.456;19.120;2023-04-21T12:05:35;10.05;;;5.15;;
71566;SDS011;59403;47.456;19.120;2023-04-21T12:08:03;7.93;;;5.07;;
71566;SDS011;59403;47.456;19.120;2023-04-21T12:10:31;10.32;;;5.18;;
71566;SDS011;59403;47.456;19.120;2023-04-21T12:12:58;7.82;;;5.50;;
71566;SDS011;59403;47.456;19.120;2023-04-21T12:15:25;9.53;;;5.90;;
71566;SDS011;59403;47.456;19.120;2023-04-21T12:17:55;8.07;;;5.10;;
71566;SDS011;59403;47.456;19.120;2023-04-21T12:20:23;7.40;;;4.72;;
71566;SDS011;59403;47.456;19.120;2023-04-21T12:22:53;7.32;;;5.30;;
71566;SDS011;59403;47.456;19.120;2023-04-21T12:25:22;10.13;;;5.60;;
71566;SDS011;59403;47.456;19.120;2023-04-21T12:27:49;9.23;;;5.63;;
71566;SDS011;59403;47.456;19.120;2023-04-21T12:30:17;11.23;;;5.43;;
71566;SDS011;59403;47.456;19.120;2023-04-21T12:32:44;9.13;;;5.32;;
71566;SDS011;59403;47.456;19.120;2023-04-21T12:35:11;7.72;;;6.32;;
71566;SDS011;59403;47.456;19.120;2023-04-21T12:37:38;11.50;;;6.10;;
71566;SDS011;59403;47.456;19.120;2023-04-21T12:40:05;9.97;;;5.70;;
71566;SDS011;59403;47.456;19.120;2023-04-21T12:42:34;8.32;;;6.30;;
71566;SDS011;59403;47.456;19.120;2023-04-21T12:45:01;9.48;;;5.30;;
71566;SDS011;59403;47.456;19.120;2023-04-21T12:47:29;10.98;;;6.80;;
71566;SDS011;59403;47.456;19.120;2023-04-21T12:49:56;12.82;;;6.10;;
71566;SDS011;59403;47.456;19.120;2023-04-21T12:52:23;9.57;;;5.53;;
71566;SDS011;59403;47.456;19.120;2023-04-21T12:54:50;10.05;;;5.60;;
71566;SDS011;59403;47.456;19.120;2023-04-21T12:57:17;9.48;;;5.18;;
71566;SDS011;59403;47.456;19.120;2023-04-21T12:59:46;11.57;;;6.05;;
71566;SDS011;59403;47.456;19.120;2023-04-21T13:02:13;8.68;;;5.00;;
71566;SDS011;59403;47.456;19.120;2023-04-21T13:04:40;11.53;;;5.80;;
71566;SDS011;59403;47.456;19.120;2023-04-21T13:07:07;10.02;;;5.78;;
71566;SDS011;59403;47.456;19.120;2023-04-21T13:09:34;10.52;;;5.60;;
71566;SDS011;59403;47.456;19.120;2023-04-21T13:12:01;13.30;;;6.05;;
71566;SDS011;59403;47.456;19.120;2023-04-21T13:14:28;7.72;;;5.53;;
71566;SDS011;59403;47.456;19.120;2023-04-21T13:16:57;8.73;;;5.80;;
71566;SDS011;59403;47.456;19.120;2023-04-21T13:19:24;11.20;;;5.12;;
71566;SDS011;59403;47.456;19.120;2023-04-21T13:21:52;9.35;;;5.30;;
71566;SDS011;59403;47.456;19.120;2023-04-21T13:24:20;7.20;;;4.82;;
71566;SDS011;59403;47.456;19.120;2023-04-21T13:26:47;9.32;;;6.07;;
71566;SDS011;59403;47.456;19.120;2023-04-21T13:29:14;10.60;;;5.73;;
71566;SDS011;59403;47.456;19.120;2023-04-21T13:31:41;13.32;;;5.80;;
71566;SDS011;59403;47.456;19.120;2023-04-21T13:34:09;11.73;;;5.53;;
71566;SDS011;59403;47.456;19.120;2023-04-21T13:36:36;8.80;;;5.47;;
71566;SDS011;59403;47.456;19.120;2023-04-21T13:39:03;10.45;;;5.70;;
71566;SDS011;59403;47.456;19.120;2023-04-21T13:41:31;8.87;;;5.70;;
71566;SDS011;59403;47.456;19.120;2023-04-21T13:43:59;12.20;;;5.45;;
71566;SDS011;59403;47.456;19.120;2023-04-21T13:46:25;8.30;;;6.03;;
71566;SDS011;59403;47.456;19.120;2023-04-21T13:48:52;8.63;;;5.80;;
71566;SDS011;59403;47.456;19.120;2023-04-21T13:51:21;10.38;;;6.25;;
71566;SDS011;59403;47.456;19.120;2023-04-21T13:53:47;10.57;;;6.63;;
71566;SDS011;59403;47.456;19.120;2023-04-21T13:56:14;8.50;;;5.87;;
71566;SDS011;59403;47.456;19.120;2023-04-21T13:58:41;7.75;;;5.57;;
71566;SDS011;59403;47.456;19.120;2023-04-21T14:01:08;8.52;;;5.70;;
71566;SDS011;59403;47.456;19.120;2023-04-21T14:03:35;7.72;;;5.72;;
71566;SDS011;59403;47.456;19.120;2023-04-21T14:06:02;8.40;;;6.13;;
71566;SDS011;59403;47.456;19.120;2023-04-21T14:08:31;7.45;;;5.72;;
71566;SDS011;59403;47.456;19.120;2023-04-21T14:10:58;7.25;;;5.40;;
71566;SDS011;59403;47.456;19.120;2023-04-21T14:13:25;9.57;;;5.95;;
71566;SDS011;59403;47.456;19.120;2023-04-21T14:15:53;8.40;;;5.70;;
71566;SDS011;59403;47.456;19.120;2023-04-21T14:18:20;8.43;;;5.20;;
71566;SDS011;59403;47.456;19.120;2023-04-21T14:20:46;10.35;;;5.82;;
71566;SDS011;59403;47.456;19.120;2023-04-21T14:23:13;7.80;;;5.50;;
71566;SDS011;59403;47.456;19.120;2023-04-21T14:25:42;8.23;;;5.30;;
71566;SDS011;59403;47.456;19.120;2023-04-21T14:28:08;7.40;;;4.97;;
71566;SDS011;59403;47.456;19.120;2023-04-21T14:30:35;9.63;;;5.03;;
71566;SDS011;59403;47.456;19.120;2023-04-21T14:33:03;7.62;;;5.45;;
71566;SDS011;59403;47.456;19.120;2023-04-21T14:35:30;7.53;;;5.97;;
71566;SDS011;59403;47.456;19.120;2023-04-21T14:37:57;7.80;;;5.50;;
71566;SDS011;59403;47.456;19.120;2023-04-21T14:40:24;9.55;;;5.80;;
71566;SDS011;59403;47.456;19.120;2023-04-21T14:42:52;9.10;;;6.23;;